sensor_id;sensor_type;location;lat;lon;timestamp;temperature;humidity
5556;DHT22;2801;50.972;7.856;2022-09-12T00:01:18;9.10;99.90
5556;DHT22;2801;50.972;7.856;2022-09-12T00:03:46;9.00;99.90
5556;DHT22;2801;50.972;7.856;2022-09-12T00:06:27;9.00;99.90
5556;DHT22;2801;50.972;7.856;2022-09-12T00:09:00;9.10;99.90
5556;DHT22;2801;50.972;7.856;2022-09-12T00:11:30;9.00;99.90
5556;DHT22;2801;50.972;7.856;2022-09-12T00:14:01;9.10;99.90
5556;DHT22;2801;50.972;7.856;2022-09-12T00:16:30;9.10;99.90
5556;DHT22;2801;50.972;7.856;2022-09-12T00:19:00;9.20;99.90
5556;DHT22;2801;50.972;7.856;2022-09-12T00:21:27;9.20;99.90
5556;DHT22;2801;50.972;7.856;2022-09-12T00:23:54;9.30;99.90
5556;DHT22;2801;50.972;7.856;2022-09-12T00:26:21;9.30;99.90
5556;DHT22;2801;50.972;7.856;2022-09-12T00:28:48;9.40;99.90
5556;DHT22;2801;50.972;7.856;2022-09-12T00:31:21;9.40;99.90
5556;DHT22;2801;50.972;7.856;2022-09-12T00:33:55;9.40;99.90
5556;DHT22;2801;50.972;7.856;2022-09-12T00:36:24;9.50;99.90
5556;DHT22;2801;50.972;7.856;2022-09-12T00:38:52;9.60;99.90
5556;DHT22;2801;50.972;7.856;2022-09-12T00:41:31;9.50;99.90
5556;DHT22;2801;50.972;7.856;2022-09-12T00:44:38;9.50;99.90
5556;DHT22;2801;50.972;7.856;2022-09-12T00:47:02;9.50;99.90
5556;DHT22;2801;50.972;7.856;2022-09-12T00:49:33;9.50;99.90
5556;DHT22;2801;50.972;7.856;2022-09-12T00:52:15;9.50;99.90
5556;DHT22;2801;50.972;7.856;2022-09-12T00:55:21;9.50;99.90
5556;DHT22;2801;50.972;7.856;2022-09-12T00:57:56;9.60;99.90
5556;DHT22;2801;50.972;7.856;2022-09-12T01:00:33;9.50;99.90
5556;DHT22;2801;50.972;7.856;2022-09-12T01:03:04;9.50;99.90
5556;DHT22;2801;50.972;7.856;2022-09-12T01:05:36;9.50;99.90
5556;DHT22;2801;50.972;7.856;2022-09-12T01:08:10;9.50;99.90
5556;DHT22;2801;50.972;7.856;2022-09-12T01:10:39;9.50;99.90
5556;DHT22;2801;50.972;7.856;2022-09-12T01:13:08;9.50;99.90
5556;DHT22;2801;50.972;7.856;2022-09-12T01:15:37;9.50;99.90
5556;DHT22;2801;50.972;7.856;2022-09-12T01:20:50;9.30;99.90
5556;DHT22;2801;50.972;7.856;2022-09-12T01:26:27;9.10;99.90
5556;DHT22;2801;50.972;7.856;2022-09-12T01:35:18;8.90;99.90
5556;DHT22;2801;50.972;7.856;2022-09-12T01:43:46;8.50;99.90
5556;DHT22;2801;50.972;7.856;2022-09-12T01:49:28;8.40;99.90
5556;DHT22;2801;50.972;7.856;2022-09-12T01:52:16;8.30;99.90
5556;DHT22;2801;50.972;7.856;2022-09-12T01:54:55;8.30;99.90
5556;DHT22;2801;50.972;7.856;2022-09-12T01:57:34;8.20;99.90
5556;DHT22;2801;50.972;7.856;2022-09-12T02:00:09;8.20;99.90
5556;DHT22;2801;50.972;7.856;2022-09-12T02:02:54;8.10;99.90
5556;DHT22;2801;50.972;7.856;2022-09-12T02:05:32;8.10;99.90
5556;DHT22;2801;50.972;7.856;2022-09-12T02:08:12;8.00;99.90
5556;DHT22;2801;50.972;7.856;2022-09-12T02:10:46;8.00;99.90
5556;DHT22;2801;50.972;7.856;2022-09-12T02:13:24;7.90;99.90
5556;DHT22;2801;50.972;7.856;2022-09-12T02:16:10;7.90;99.90
5556;DHT22;2801;50.972;7.856;2022-09-12T02:18:46;7.90;99.90
5556;DHT22;2801;50.972;7.856;2022-09-12T02:21:19;7.80;99.90
5556;DHT22;2801;50.972;7.856;2022-09-12T02:23:54;7.80;99.90
5556;DHT22;2801;50.972;7.856;2022-09-12T02:26:29;7.70;99.90
5556;DHT22;2801;50.972;7.856;2022-09-12T02:28:59;7.70;99.90
5556;DHT22;2801;50.972;7.856;2022-09-12T02:34:09;7.70;99.90
5556;DHT22;2801;50.972;7.856;2022-09-12T02:39:38;7.60;99.90
5556;DHT22;2801;50.972;7.856;2022-09-12T02:42:10;7.60;99.90
5556;DHT22;2801;50.972;7.856;2022-09-12T02:44:38;7.60;99.90
5556;DHT22;2801;50.972;7.856;2022-09-12T02:47:12;7.60;99.90
5556;DHT22;2801;50.972;7.856;2022-09-12T02:49:44;7.60;99.90
5556;DHT22;2801;50.972;7.856;2022-09-12T02:52:12;7.70;99.90
5556;DHT22;2801;50.972;7.856;2022-09-12T02:54:39;7.60;99.90
5556;DHT22;2801;50.972;7.856;2022-09-12T02:57:20;7.70;99.90
5556;DHT22;2801;50.972;7.856;2022-09-12T02:59:50;7.70;99.90
5556;DHT22;2801;50.972;7.856;2022-09-12T03:02:28;7.70;99.90
5556;DHT22;2801;50.972;7.856;2022-09-12T03:05:12;7.60;99.90
5556;DHT22;2801;50.972;7.856;2022-09-12T03:22:51;7.50;99.90
5556;DHT22;2801;50.972;7.856;2022-09-12T03:25:29;7.40;99.90
5556;DHT22;2801;50.972;7.856;2022-09-12T03:28:13;7.40;99.90
5556;DHT22;2801;50.972;7.856;2022-09-12T03:30:45;7.40;99.90
5556;DHT22;2801;50.972;7.856;2022-09-12T03:33:19;7.30;99.90
5556;DHT22;2801;50.972;7.856;2022-09-12T03:35:48;7.30;99.90
5556;DHT22;2801;50.972;7.856;2022-09-12T03:38:16;7.20;99.90
5556;DHT22;2801;50.972;7.856;2022-09-12T03:40:43;7.10;99.90
5556;DHT22;2801;50.972;7.856;2022-09-12T03:43:10;7.10;99.90
5556;DHT22;2801;50.972;7.856;2022-09-12T03:45:37;7.10;99.90
5556;DHT22;2801;50.972;7.856;2022-09-12T03:48:04;7.00;99.90
5556;DHT22;2801;50.972;7.856;2022-09-12T03:50:32;7.00;99.90
5556;DHT22;2801;50.972;7.856;2022-09-12T03:52:59;7.00;99.90
5556;DHT22;2801;50.972;7.856;2022-09-12T03:55:26;7.00;99.90
5556;DHT22;2801;50.972;7.856;2022-09-12T03:57:54;6.90;99.90
5556;DHT22;2801;50.972;7.856;2022-09-12T04:00:22;6.90;99.90
5556;DHT22;2801;50.972;7.856;2022-09-12T04:02:53;6.90;99.90
5556;DHT22;2801;50.972;7.856;2022-09-12T04:05:23;6.90;99.90
5556;DHT22;2801;50.972;7.856;2022-09-12T04:07:51;6.90;99.90
5556;DHT22;2801;50.972;7.856;2022-09-12T04:10:18;6.90;99.90
5556;DHT22;2801;50.972;7.856;2022-09-12T04:12:45;6.90;99.90
5556;DHT22;2801;50.972;7.856;2022-09-12T04:15:12;6.90;99.90
5556;DHT22;2801;50.972;7.856;2022-09-12T04:17:39;6.90;99.90
5556;DHT22;2801;50.972;7.856;2022-09-12T04:20:06;6.90;99.90
5556;DHT22;2801;50.972;7.856;2022-09-12T04:22:33;6.80;99.90
5556;DHT22;2801;50.972;7.856;2022-09-12T04:25:00;6.90;99.90
5556;DHT22;2801;50.972;7.856;2022-09-12T04:27:28;6.90;99.90
5556;DHT22;2801;50.972;7.856;2022-09-12T04:29:55;6.90;99.90
5556;DHT22;2801;50.972;7.856;2022-09-12T04:32:22;6.90;99.90
5556;DHT22;2801;50.972;7.856;2022-09-12T04:34:49;6.90;99.90
5556;DHT22;2801;50.972;7.856;2022-09-12T04:37:17;6.90;99.90
5556;DHT22;2801;50.972;7.856;2022-09-12T04:39:44;6.80;99.90
5556;DHT22;2801;50.972;7.856;2022-09-12T04:42:11;6.90;99.90
5556;DHT22;2801;50.972;7.856;2022-09-12T04:44:38;6.80;99.90
5556;DHT22;2801;50.972;7.856;2022-09-12T04:47:05;6.70;99.90
5556;DHT22;2801;50.972;7.856;2022-09-12T04:49:32;6.70;99.90
5556;DHT22;2801;50.972;7.856;2022-09-12T04:51:59;6.70;99.90
5556;DHT22;2801;50.972;7.856;2022-09-12T04:54:25;6.70;99.90
5556;DHT22;2801;50.972;7.856;2022-09-12T04:56:52;6.60;99.90
5556;DHT22;2801;50.972;7.856;2022-09-12T04:59:22;6.60;99.90
5556;DHT22;2801;50.972;7.856;2022-09-12T05:01:50;6.60;99.90
5556;DHT22;2801;50.972;7.856;2022-09-12T05:04:17;6.60;99.90
5556;DHT22;2801;50.972;7.856;2022-09-12T05:06:44;6.60;99.90
5556;DHT22;2801;50.972;7.856;2022-09-12T05:09:13;6.60;99.90
5556;DHT22;2801;50.972;7.856;2022-09-12T05:11:43;6.60;99.90
5556;DHT22;2801;50.972;7.856;2022-09-12T05:14:30;6.70;99.90
5556;DHT22;2801;50.972;7.856;2022-09-12T05:16:58;6.70;99.90
5556;DHT22;2801;50.972;7.856;2022-09-12T05:19:28;6.70;99.90
5556;DHT22;2801;50.972;7.856;2022-09-12T05:21:55;6.80;99.90
5556;DHT22;2801;50.972;7.856;2022-09-12T05:24:23;6.80;99.90
5556;DHT22;2801;50.972;7.856;2022-09-12T05:26:50;6.90;99.90
5556;DHT22;2801;50.972;7.856;2022-09-12T05:29:17;6.90;99.90
5556;DHT22;2801;50.972;7.856;2022-09-12T05:31:44;7.00;99.90
5556;DHT22;2801;50.972;7.856;2022-09-12T05:34:11;7.10;99.90
5556;DHT22;2801;50.972;7.856;2022-09-12T05:36:38;7.20;99.90
5556;DHT22;2801;50.972;7.856;2022-09-12T05:39:05;7.30;99.90
5556;DHT22;2801;50.972;7.856;2022-09-12T05:41:32;7.40;99.90
5556;DHT22;2801;50.972;7.856;2022-09-12T05:44:03;7.60;99.90
5556;DHT22;2801;50.972;7.856;2022-09-12T05:46:40;7.70;99.90
5556;DHT22;2801;50.972;7.856;2022-09-12T05:49:11;7.90;99.90
5556;DHT22;2801;50.972;7.856;2022-09-12T05:51:41;8.00;99.90
5556;DHT22;2801;50.972;7.856;2022-09-12T05:54:13;8.10;99.90
5556;DHT22;2801;50.972;7.856;2022-09-12T05:56:43;8.30;99.90
5556;DHT22;2801;50.972;7.856;2022-09-12T05:59:13;8.80;99.90
5556;DHT22;2801;50.972;7.856;2022-09-12T06:01:45;9.50;99.90
5556;DHT22;2801;50.972;7.856;2022-09-12T06:04:12;10.30;99.90
5556;DHT22;2801;50.972;7.856;2022-09-12T06:06:42;11.10;99.90
5556;DHT22;2801;50.972;7.856;2022-09-12T06:09:15;11.80;99.90
5556;DHT22;2801;50.972;7.856;2022-09-12T06:11:43;12.40;99.90
5556;DHT22;2801;50.972;7.856;2022-09-12T06:14:13;13.00;99.90
5556;DHT22;2801;50.972;7.856;2022-09-12T06:16:41;13.60;99.90
5556;DHT22;2801;50.972;7.856;2022-09-12T06:19:17;14.30;99.90
5556;DHT22;2801;50.972;7.856;2022-09-12T06:21:46;15.00;99.90
5556;DHT22;2801;50.972;7.856;2022-09-12T06:24:17;15.70;99.90
5556;DHT22;2801;50.972;7.856;2022-09-12T06:26:48;16.30;99.90
5556;DHT22;2801;50.972;7.856;2022-09-12T06:29:15;17.00;99.90
5556;DHT22;2801;50.972;7.856;2022-09-12T06:31:43;17.60;99.90
5556;DHT22;2801;50.972;7.856;2022-09-12T06:34:12;18.40;99.90
5556;DHT22;2801;50.972;7.856;2022-09-12T06:36:43;19.20;99.90
5556;DHT22;2801;50.972;7.856;2022-09-12T06:39:17;19.70;99.90
5556;DHT22;2801;50.972;7.856;2022-09-12T06:41:47;20.30;99.90
5556;DHT22;2801;50.972;7.856;2022-09-12T06:44:17;20.70;99.90
5556;DHT22;2801;50.972;7.856;2022-09-12T06:46:45;20.70;99.90
5556;DHT22;2801;50.972;7.856;2022-09-12T06:49:13;20.90;99.90
5556;DHT22;2801;50.972;7.856;2022-09-12T06:51:40;21.10;99.90
5556;DHT22;2801;50.972;7.856;2022-09-12T06:54:11;21.50;99.90
5556;DHT22;2801;50.972;7.856;2022-09-12T06:56:43;22.10;99.90
5556;DHT22;2801;50.972;7.856;2022-09-12T06:59:10;22.50;99.90
5556;DHT22;2801;50.972;7.856;2022-09-12T07:01:37;22.80;99.90
5556;DHT22;2801;50.972;7.856;2022-09-12T07:04:05;23.30;99.90
5556;DHT22;2801;50.972;7.856;2022-09-12T07:06:37;23.80;99.90
5556;DHT22;2801;50.972;7.856;2022-09-12T07:09:09;24.10;99.90
5556;DHT22;2801;50.972;7.856;2022-09-12T07:11:40;24.50;99.90
5556;DHT22;2801;50.972;7.856;2022-09-12T07:14:10;24.70;99.90
5556;DHT22;2801;50.972;7.856;2022-09-12T07:16:38;25.00;99.90
5556;DHT22;2801;50.972;7.856;2022-09-12T07:19:06;25.10;99.90
5556;DHT22;2801;50.972;7.856;2022-09-12T07:21:34;25.10;99.90
5556;DHT22;2801;50.972;7.856;2022-09-12T07:24:05;24.90;99.90
5556;DHT22;2801;50.972;7.856;2022-09-12T07:26:34;24.40;99.90
5556;DHT22;2801;50.972;7.856;2022-09-12T07:29:01;24.10;99.90
5556;DHT22;2801;50.972;7.856;2022-09-12T07:31:48;23.90;99.90
5556;DHT22;2801;50.972;7.856;2022-09-12T07:34:15;23.80;99.90
5556;DHT22;2801;50.972;7.856;2022-09-12T07:36:43;23.80;99.90
5556;DHT22;2801;50.972;7.856;2022-09-12T07:39:09;23.90;99.90
5556;DHT22;2801;50.972;7.856;2022-09-12T07:41:36;23.90;99.90
5556;DHT22;2801;50.972;7.856;2022-09-12T07:44:03;23.70;99.90
5556;DHT22;2801;50.972;7.856;2022-09-12T07:46:32;23.40;99.90
5556;DHT22;2801;50.972;7.856;2022-09-12T07:48:59;23.30;99.90
5556;DHT22;2801;50.972;7.856;2022-09-12T07:51:28;23.20;99.90
5556;DHT22;2801;50.972;7.856;2022-09-12T07:53:57;23.20;99.90
5556;DHT22;2801;50.972;7.856;2022-09-12T07:56:25;23.20;99.90
5556;DHT22;2801;50.972;7.856;2022-09-12T07:58:58;23.40;99.90
5556;DHT22;2801;50.972;7.856;2022-09-12T08:01:25;23.60;99.90
5556;DHT22;2801;50.972;7.856;2022-09-12T08:03:54;23.80;99.90
5556;DHT22;2801;50.972;7.856;2022-09-12T08:06:24;23.90;99.90
5556;DHT22;2801;50.972;7.856;2022-09-12T08:08:54;23.70;99.90
5556;DHT22;2801;50.972;7.856;2022-09-12T08:11:23;23.50;99.90
5556;DHT22;2801;50.972;7.856;2022-09-12T08:13:51;23.20;99.90
5556;DHT22;2801;50.972;7.856;2022-09-12T08:16:24;22.80;99.90
5556;DHT22;2801;50.972;7.856;2022-09-12T08:18:52;22.60;99.90
5556;DHT22;2801;50.972;7.856;2022-09-12T08:21:21;22.50;99.90
5556;DHT22;2801;50.972;7.856;2022-09-12T08:23:58;22.50;99.90
5556;DHT22;2801;50.972;7.856;2022-09-12T08:26:26;22.50;99.90
5556;DHT22;2801;50.972;7.856;2022-09-12T08:28:54;22.30;99.90
5556;DHT22;2801;50.972;7.856;2022-09-12T08:31:22;22.00;99.90
5556;DHT22;2801;50.972;7.856;2022-09-12T08:33:51;21.60;99.90
5556;DHT22;2801;50.972;7.856;2022-09-12T08:36:23;21.40;99.90
5556;DHT22;2801;50.972;7.856;2022-09-12T08:39:00;21.30;99.90
5556;DHT22;2801;50.972;7.856;2022-09-12T08:41:42;21.50;99.90
5556;DHT22;2801;50.972;7.856;2022-09-12T08:47:30;21.20;99.90
5556;DHT22;2801;50.972;7.856;2022-09-12T08:53:20;21.20;99.90
5556;DHT22;2801;50.972;7.856;2022-09-12T08:55:58;21.20;99.90
5556;DHT22;2801;50.972;7.856;2022-09-12T08:58:27;21.30;99.90
5556;DHT22;2801;50.972;7.856;2022-09-12T09:09:43;20.60;99.90
5556;DHT22;2801;50.972;7.856;2022-09-12T09:15:58;21.30;99.90
5556;DHT22;2801;50.972;7.856;2022-09-12T09:18:35;21.90;99.90
5556;DHT22;2801;50.972;7.856;2022-09-12T09:21:23;22.40;99.90
5556;DHT22;2801;50.972;7.856;2022-09-12T09:24:01;22.80;99.90
5556;DHT22;2801;50.972;7.856;2022-09-12T09:26:40;23.00;99.90
5556;DHT22;2801;50.972;7.856;2022-09-12T09:29:17;23.20;99.90
5556;DHT22;2801;50.972;7.856;2022-09-12T09:31:48;23.50;99.90
5556;DHT22;2801;50.972;7.856;2022-09-12T09:34:20;23.60;99.90
5556;DHT22;2801;50.972;7.856;2022-09-12T09:43:05;23.20;99.90
5556;DHT22;2801;50.972;7.856;2022-09-12T09:45:40;23.00;99.90
5556;DHT22;2801;50.972;7.856;2022-09-12T09:48:26;22.90;99.90
5556;DHT22;2801;50.972;7.856;2022-09-12T09:50:59;23.00;99.90
5556;DHT22;2801;50.972;7.856;2022-09-12T09:53:44;23.10;99.90
5556;DHT22;2801;50.972;7.856;2022-09-12T09:56:38;23.30;99.90
5556;DHT22;2801;50.972;7.856;2022-09-12T10:04:34;25.80;99.90
5556;DHT22;2801;50.972;7.856;2022-09-12T10:07:17;25.80;99.90
5556;DHT22;2801;50.972;7.856;2022-09-12T10:10:05;25.80;99.90
5556;DHT22;2801;50.972;7.856;2022-09-12T10:12:38;26.00;99.90
5556;DHT22;2801;50.972;7.856;2022-09-12T10:15:25;26.00;99.90
5556;DHT22;2801;50.972;7.856;2022-09-12T10:17:53;25.80;99.30
5556;DHT22;2801;50.972;7.856;2022-09-12T10:25:56;26.40;96.80
5556;DHT22;2801;50.972;7.856;2022-09-12T10:28:42;25.40;98.10
5556;DHT22;2801;50.972;7.856;2022-09-12T10:31:23;24.80;99.90
5556;DHT22;2801;50.972;7.856;2022-09-12T10:33:56;24.80;99.90
5556;DHT22;2801;50.972;7.856;2022-09-12T10:36:33;24.80;99.90
5556;DHT22;2801;50.972;7.856;2022-09-12T10:39:02;25.10;99.90
5556;DHT22;2801;50.972;7.856;2022-09-12T10:41:38;25.60;99.90
5556;DHT22;2801;50.972;7.856;2022-09-12T10:44:17;25.40;99.90
5556;DHT22;2801;50.972;7.856;2022-09-12T10:46:51;24.90;98.80
5556;DHT22;2801;50.972;7.856;2022-09-12T10:49:22;24.40;99.90
5556;DHT22;2801;50.972;7.856;2022-09-12T10:51:52;24.00;98.30
5556;DHT22;2801;50.972;7.856;2022-09-12T10:54:22;23.80;99.90
5556;DHT22;2801;50.972;7.856;2022-09-12T10:57:33;23.70;99.90
5556;DHT22;2801;50.972;7.856;2022-09-12T11:00:17;24.00;99.90
5556;DHT22;2801;50.972;7.856;2022-09-12T11:03:08;24.90;99.90
5556;DHT22;2801;50.972;7.856;2022-09-12T11:08:33;25.60;98.40
5556;DHT22;2801;50.972;7.856;2022-09-12T11:11:28;26.00;98.30
5556;DHT22;2801;50.972;7.856;2022-09-12T11:14:17;26.10;97.50
5556;DHT22;2801;50.972;7.856;2022-09-12T11:23:12;24.90;98.80
5556;DHT22;2801;50.972;7.856;2022-09-12T11:29:28;25.40;98.50
5556;DHT22;2801;50.972;7.856;2022-09-12T11:40:38;25.00;99.30
5556;DHT22;2801;50.972;7.856;2022-09-12T11:45:45;24.80;99.90
5556;DHT22;2801;50.972;7.856;2022-09-12T11:51:03;24.30;99.50
5556;DHT22;2801;50.972;7.856;2022-09-12T11:53:38;23.90;99.20
5556;DHT22;2801;50.972;7.856;2022-09-12T11:56:16;23.50;98.90
5556;DHT22;2801;50.972;7.856;2022-09-12T11:58:50;23.30;98.00
5556;DHT22;2801;50.972;7.856;2022-09-12T12:01:26;23.40;98.10
5556;DHT22;2801;50.972;7.856;2022-09-12T12:04:09;23.40;96.20
5556;DHT22;2801;50.972;7.856;2022-09-12T12:06:52;23.40;97.60
5556;DHT22;2801;50.972;7.856;2022-09-12T12:09:27;23.60;97.60
5556;DHT22;2801;50.972;7.856;2022-09-12T12:11:55;23.40;94.90
5556;DHT22;2801;50.972;7.856;2022-09-12T12:14:32;23.40;97.70
5556;DHT22;2801;50.972;7.856;2022-09-12T12:17:13;23.40;98.00
5556;DHT22;2801;50.972;7.856;2022-09-12T12:19:42;23.70;98.60
5556;DHT22;2801;50.972;7.856;2022-09-12T12:22:20;24.00;99.20
5556;DHT22;2801;50.972;7.856;2022-09-12T12:35:43;24.90;95.70
5556;DHT22;2801;50.972;7.856;2022-09-12T12:38:38;25.10;94.20
5556;DHT22;2801;50.972;7.856;2022-09-12T12:43:46;25.00;91.80
5556;DHT22;2801;50.972;7.856;2022-09-12T12:46:19;25.00;95.10
5556;DHT22;2801;50.972;7.856;2022-09-12T12:48:54;24.90;95.50
5556;DHT22;2801;50.972;7.856;2022-09-12T12:51:32;24.90;95.30
5556;DHT22;2801;50.972;7.856;2022-09-12T12:59:51;25.00;94.70
5556;DHT22;2801;50.972;7.856;2022-09-12T13:02:24;25.10;93.40
5556;DHT22;2801;50.972;7.856;2022-09-12T13:04:55;25.10;94.90
5556;DHT22;2801;50.972;7.856;2022-09-12T13:07:36;24.90;93.10
5556;DHT22;2801;50.972;7.856;2022-09-12T13:10:07;24.90;92.70
5556;DHT22;2801;50.972;7.856;2022-09-12T13:12:44;24.80;90.20
5556;DHT22;2801;50.972;7.856;2022-09-12T13:18:12;24.60;91.40
5556;DHT22;2801;50.972;7.856;2022-09-12T13:21:02;24.80;92.60
5556;DHT22;2801;50.972;7.856;2022-09-12T13:23:34;24.80;91.70
5556;DHT22;2801;50.972;7.856;2022-09-12T13:26:02;24.90;92.50
5556;DHT22;2801;50.972;7.856;2022-09-12T13:28:30;25.00;92.40
5556;DHT22;2801;50.972;7.856;2022-09-12T13:31:20;25.10;91.70
5556;DHT22;2801;50.972;7.856;2022-09-12T13:33:51;25.10;90.60
5556;DHT22;2801;50.972;7.856;2022-09-12T13:39:20;24.80;91.10
5556;DHT22;2801;50.972;7.856;2022-09-12T13:45:42;24.60;88.50
5556;DHT22;2801;50.972;7.856;2022-09-12T13:47:56;24.50;89.80
5556;DHT22;2801;50.972;7.856;2022-09-12T13:50:30;24.50;90.10
5556;DHT22;2801;50.972;7.856;2022-09-12T13:53:12;24.50;91.20
5556;DHT22;2801;50.972;7.856;2022-09-12T13:55:45;24.50;91.40
5556;DHT22;2801;50.972;7.856;2022-09-12T13:58:20;24.60;91.40
5556;DHT22;2801;50.972;7.856;2022-09-12T14:01:03;24.60;91.40
5556;DHT22;2801;50.972;7.856;2022-09-12T14:06:36;24.60;91.10
5556;DHT22;2801;50.972;7.856;2022-09-12T14:09:40;24.80;91.60
5556;DHT22;2801;50.972;7.856;2022-09-12T14:12:23;24.80;90.80
5556;DHT22;2801;50.972;7.856;2022-09-12T14:14:52;24.80;91.00
5556;DHT22;2801;50.972;7.856;2022-09-12T14:17:23;24.80;91.60
5556;DHT22;2801;50.972;7.856;2022-09-12T14:20:00;24.90;91.30
5556;DHT22;2801;50.972;7.856;2022-09-12T14:22:29;25.00;91.90
5556;DHT22;2801;50.972;7.856;2022-09-12T14:24:57;25.10;91.90
5556;DHT22;2801;50.972;7.856;2022-09-12T14:27:33;25.10;91.50
5556;DHT22;2801;50.972;7.856;2022-09-12T14:30:17;25.10;90.20
5556;DHT22;2801;50.972;7.856;2022-09-12T14:35:37;24.80;90.30
5556;DHT22;2801;50.972;7.856;2022-09-12T14:41:03;24.80;91.00
5556;DHT22;2801;50.972;7.856;2022-09-12T14:43:39;24.70;86.70
5556;DHT22;2801;50.972;7.856;2022-09-12T14:46:19;24.70;91.10
5556;DHT22;2801;50.972;7.856;2022-09-12T14:51:33;24.60;90.80
5556;DHT22;2801;50.972;7.856;2022-09-12T14:54:02;24.40;89.90
5556;DHT22;2801;50.972;7.856;2022-09-12T14:56:44;24.40;90.60
5556;DHT22;2801;50.972;7.856;2022-09-12T15:10:28;24.20;91.20
5556;DHT22;2801;50.972;7.856;2022-09-12T15:15:49;24.10;91.50
5556;DHT22;2801;50.972;7.856;2022-09-12T15:18:25;24.00;91.60
5556;DHT22;2801;50.972;7.856;2022-09-12T15:20:56;24.10;92.00
5556;DHT22;2801;50.972;7.856;2022-09-12T15:23:34;24.20;92.20
5556;DHT22;2801;50.972;7.856;2022-09-12T15:26:06;24.10;91.90
5556;DHT22;2801;50.972;7.856;2022-09-12T15:28:35;23.90;90.80
5556;DHT22;2801;50.972;7.856;2022-09-12T15:31:06;23.90;92.20
5556;DHT22;2801;50.972;7.856;2022-09-12T15:33:37;23.90;92.60
5556;DHT22;2801;50.972;7.856;2022-09-12T15:36:12;23.90;92.60
5556;DHT22;2801;50.972;7.856;2022-09-12T15:38:42;23.80;92.40
5556;DHT22;2801;50.972;7.856;2022-09-12T15:41:17;23.80;92.60
5556;DHT22;2801;50.972;7.856;2022-09-12T15:43:50;23.70;92.50
5556;DHT22;2801;50.972;7.856;2022-09-12T15:46:18;23.50;92.30
5556;DHT22;2801;50.972;7.856;2022-09-12T15:48:45;23.40;92.70
5556;DHT22;2801;50.972;7.856;2022-09-12T15:51:13;23.30;93.10
5556;DHT22;2801;50.972;7.856;2022-09-12T15:53:45;23.20;91.90
5556;DHT22;2801;50.972;7.856;2022-09-12T15:56:15;23.10;92.50
5556;DHT22;2801;50.972;7.856;2022-09-12T15:58:44;22.90;92.20
5556;DHT22;2801;50.972;7.856;2022-09-12T16:01:24;22.80;92.70
5556;DHT22;2801;50.972;7.856;2022-09-12T16:03:51;22.70;93.20
5556;DHT22;2801;50.972;7.856;2022-09-12T16:06:17;22.60;93.10
5556;DHT22;2801;50.972;7.856;2022-09-12T16:08:44;22.50;93.50
5556;DHT22;2801;50.972;7.856;2022-09-12T16:11:20;22.40;93.80
5556;DHT22;2801;50.972;7.856;2022-09-12T16:13:50;22.40;94.30
5556;DHT22;2801;50.972;7.856;2022-09-12T16:16:17;22.30;94.70
5556;DHT22;2801;50.972;7.856;2022-09-12T16:18:44;22.30;95.00
5556;DHT22;2801;50.972;7.856;2022-09-12T16:21:11;22.30;95.50
5556;DHT22;2801;50.972;7.856;2022-09-12T16:23:42;22.20;95.80
5556;DHT22;2801;50.972;7.856;2022-09-12T16:26:10;22.00;95.80
5556;DHT22;2801;50.972;7.856;2022-09-12T16:28:37;21.90;96.10
5556;DHT22;2801;50.972;7.856;2022-09-12T16:31:05;21.90;96.30
5556;DHT22;2801;50.972;7.856;2022-09-12T16:33:34;21.80;96.40
5556;DHT22;2801;50.972;7.856;2022-09-12T16:38:40;21.60;96.40
5556;DHT22;2801;50.972;7.856;2022-09-12T16:41:08;21.50;97.00
5556;DHT22;2801;50.972;7.856;2022-09-12T16:43:35;21.30;97.30
5556;DHT22;2801;50.972;7.856;2022-09-12T16:46:08;21.20;97.50
5556;DHT22;2801;50.972;7.856;2022-09-12T16:48:44;21.10;97.80
5556;DHT22;2801;50.972;7.856;2022-09-12T16:51:20;21.00;98.00
5556;DHT22;2801;50.972;7.856;2022-09-12T16:53:49;20.90;98.20
5556;DHT22;2801;50.972;7.856;2022-09-12T16:56:16;20.80;98.30
5556;DHT22;2801;50.972;7.856;2022-09-12T16:58:44;20.80;98.70
5556;DHT22;2801;50.972;7.856;2022-09-12T17:01:16;20.70;98.90
5556;DHT22;2801;50.972;7.856;2022-09-12T17:03:45;20.60;99.00
5556;DHT22;2801;50.972;7.856;2022-09-12T17:06:16;20.50;99.10
5556;DHT22;2801;50.972;7.856;2022-09-12T17:08:52;20.50;99.30
5556;DHT22;2801;50.972;7.856;2022-09-12T17:11:25;20.40;99.30
5556;DHT22;2801;50.972;7.856;2022-09-12T17:13:57;20.30;99.50
5556;DHT22;2801;50.972;7.856;2022-09-12T17:16:33;20.20;99.70
5556;DHT22;2801;50.972;7.856;2022-09-12T17:19:01;20.10;99.80
5556;DHT22;2801;50.972;7.856;2022-09-12T17:21:29;20.00;99.80
5556;DHT22;2801;50.972;7.856;2022-09-12T17:23:56;19.90;99.90
5556;DHT22;2801;50.972;7.856;2022-09-12T17:26:24;19.90;99.90
5556;DHT22;2801;50.972;7.856;2022-09-12T17:28:52;19.80;99.90
5556;DHT22;2801;50.972;7.856;2022-09-12T17:31:19;19.80;99.90
5556;DHT22;2801;50.972;7.856;2022-09-12T17:33:46;19.70;99.90
5556;DHT22;2801;50.972;7.856;2022-09-12T17:36:15;19.70;99.90
5556;DHT22;2801;50.972;7.856;2022-09-12T17:38:44;19.60;99.90
5556;DHT22;2801;50.972;7.856;2022-09-12T17:41:17;19.50;99.90
5556;DHT22;2801;50.972;7.856;2022-09-12T17:43:50;19.40;99.90
5556;DHT22;2801;50.972;7.856;2022-09-12T17:46:21;19.30;99.90
5556;DHT22;2801;50.972;7.856;2022-09-12T17:48:54;19.10;99.90
5556;DHT22;2801;50.972;7.856;2022-09-12T17:51:23;19.00;99.90
5556;DHT22;2801;50.972;7.856;2022-09-12T17:54:12;18.90;99.90
5556;DHT22;2801;50.972;7.856;2022-09-12T17:56:42;18.80;99.90
5556;DHT22;2801;50.972;7.856;2022-09-12T17:59:16;18.70;99.90
5556;DHT22;2801;50.972;7.856;2022-09-12T18:01:45;18.60;99.90
5556;DHT22;2801;50.972;7.856;2022-09-12T18:04:31;18.50;99.90
5556;DHT22;2801;50.972;7.856;2022-09-12T18:06:58;18.40;99.90
5556;DHT22;2801;50.972;7.856;2022-09-12T18:09:26;18.30;99.90
5556;DHT22;2801;50.972;7.856;2022-09-12T18:11:53;18.20;99.90
5556;DHT22;2801;50.972;7.856;2022-09-12T18:14:21;18.10;99.90
5556;DHT22;2801;50.972;7.856;2022-09-12T18:16:48;18.10;99.90
5556;DHT22;2801;50.972;7.856;2022-09-12T18:19:15;18.00;99.90
5556;DHT22;2801;50.972;7.856;2022-09-12T18:21:43;17.90;99.90
5556;DHT22;2801;50.972;7.856;2022-09-12T18:24:10;17.90;99.90
5556;DHT22;2801;50.972;7.856;2022-09-12T18:26:37;17.80;99.90
5556;DHT22;2801;50.972;7.856;2022-09-12T18:29:04;17.70;99.90
5556;DHT22;2801;50.972;7.856;2022-09-12T18:31:31;17.70;99.90
5556;DHT22;2801;50.972;7.856;2022-09-12T18:33:58;17.60;99.90
5556;DHT22;2801;50.972;7.856;2022-09-12T18:36:27;17.50;99.90
5556;DHT22;2801;50.972;7.856;2022-09-12T18:38:58;17.40;99.90
5556;DHT22;2801;50.972;7.856;2022-09-12T18:41:25;17.40;99.90
5556;DHT22;2801;50.972;7.856;2022-09-12T18:43:56;17.30;99.90
5556;DHT22;2801;50.972;7.856;2022-09-12T18:46:25;17.30;99.90
5556;DHT22;2801;50.972;7.856;2022-09-12T18:48:57;17.20;99.90
5556;DHT22;2801;50.972;7.856;2022-09-12T18:51:27;17.20;99.90
5556;DHT22;2801;50.972;7.856;2022-09-12T18:54:05;17.10;99.90
5556;DHT22;2801;50.972;7.856;2022-09-12T18:56:33;17.00;99.90
5556;DHT22;2801;50.972;7.856;2022-09-12T18:59:04;16.90;99.90
5556;DHT22;2801;50.972;7.856;2022-09-12T19:01:35;16.80;99.90
5556;DHT22;2801;50.972;7.856;2022-09-12T19:04:04;16.60;99.90
5556;DHT22;2801;50.972;7.856;2022-09-12T19:06:35;16.40;99.90
5556;DHT22;2801;50.972;7.856;2022-09-12T19:09:05;16.30;99.90
5556;DHT22;2801;50.972;7.856;2022-09-12T19:11:38;16.00;99.90
5556;DHT22;2801;50.972;7.856;2022-09-12T19:14:07;15.80;99.90
5556;DHT22;2801;50.972;7.856;2022-09-12T19:16:34;15.60;99.90
5556;DHT22;2801;50.972;7.856;2022-09-12T19:19:02;15.50;99.90
5556;DHT22;2801;50.972;7.856;2022-09-12T19:21:30;15.40;99.90